Time;durP1;ratioP1;P1;durP2;ratioP2;P2;SDS_P1;SDS_P2;PMS_P1;PMS_P2;Temp;Humidity;BMP_temperature;BMP_pressure;BME280_temperature;BME280_humidity;BME280_pressure;Samples;Min_cycle;Max_cycle;Signal;HPM_P1;HPM_P2
2022/06/23 00:01:59;;;;;;;4.20;3.90;;;16.70;99.90;;;;;;5175849;28;21038;-48
2022/06/23 00:04:42;;;;;;;6.80;4.77;;;16.60;99.90;;;;;;5172402;28;20435;-50
2022/06/23 00:07:30;;;;;;;5.60;4.67;;;16.60;99.90;;;;;;5192388;28;20439;-48
2022/06/23 00:10:18;;;;;;;4.60;3.83;;;16.50;99.90;;;;;;5173179;28;20442;-49
2022/06/23 00:12:50;;;;;;;4.97;4.47;;;16.50;99.90;;;;;;5175255;28;20767;-49
2022/06/23 00:15:37;;;;;;;5.37;4.80;;;16.40;99.90;;;;;;5174009;28;20494;-49
2022/06/23 00:18:18;;;;;;;7.80;4.73;;;16.40;99.90;;;;;;5177334;28;20435;-48
2022/06/23 00:20:57;;;;;;;4.83;4.53;;;16.40;99.90;;;;;;5177035;28;20470;-49
2022/06/23 00:23:32;;;;;;;7.53;4.63;;;16.40;99.90;;;;;;5175341;28;20439;-48
2022/06/23 00:26:17;;;;;;;8.67;4.80;;;16.40;99.90;;;;;;5174229;28;20435;-50
2022/06/23 00:28:51;;;;;;;7.93;4.70;;;16.30;99.90;;;;;;5177257;28;20550;-48
2022/06/23 00:31:58;;;;;;;7.80;4.30;;;16.20;99.90;;;;;;5174220;28;20451;-48
2022/06/23 00:34:41;;;;;;;11.93;4.80;;;16.20;99.90;;;;;;5162998;28;20451;-50
2022/06/23 00:37:17;;;;;;;14.63;5.40;;;16.20;99.90;;;;;;5174585;28;20442;-49
2022/06/23 00:39:56;;;;;;;14.70;5.30;;;16.10;99.90;;;;;;5173332;28;20439;-49
2022/06/23 00:42:31;;;;;;;9.13;5.30;;;16.10;99.90;;;;;;5184570;28;20452;-48
2022/06/23 00:45:07;;;;;;;5.30;4.80;;;16.10;99.90;;;;;;5178665;28;20443;-47
2022/06/23 00:48:01;;;;;;;5.43;4.97;;;16.10;99.90;;;;;;5179454;28;20505;-49
2022/06/23 00:50:49;;;;;;;8.40;5.23;;;16.00;99.90;;;;;;5177950;28;20469;-49
2022/06/23 00:53:29;;;;;;;15.90;6.33;;;16.00;99.90;;;;;;5173960;28;20457;-48
2022/06/23 00:56:28;;;;;;;12.60;6.17;;;16.00;99.90;;;;;;5181306;28;20457;-48
2022/06/23 00:59:23;;;;;;;8.00;6.33;;;16.00;99.90;;;;;;5170887;28;20446;-49
2022/06/23 01:02:20;;;;;;;10.90;6.20;;;16.00;99.90;;;;;;5175900;28;20477;-48
2022/06/23 01:05:09;;;;;;;21.57;6.70;;;16.00;99.90;;;;;;5177654;28;20943;-49
2022/06/23 01:07:58;;;;;;;9.87;6.90;;;16.00;99.90;;;;;;5191055;28;20462;-49
2022/06/23 01:10:48;;;;;;;10.50;7.10;;;15.90;99.90;;;;;;5174959;28;21034;-49
2022/06/23 01:13:26;;;;;;;16.03;6.80;;;15.90;99.90;;;;;;5175283;28;20929;-49
2022/06/23 01:16:20;;;;;;;11.27;6.50;;;15.90;99.90;;;;;;5179774;28;21117;-48
2022/06/23 01:18:59;;;;;;;11.70;6.50;;;15.90;99.90;;;;;;5175159;28;20965;-49
2022/06/23 01:21:36;;;;;;;12.37;7.20;;;15.80;99.90;;;;;;5181368;28;20839;-49
2022/06/23 01:24:28;;;;;;;10.20;6.10;;;15.90;99.90;;;;;;5177668;28;20577;-49
2022/06/23 01:27:15;;;;;;;5.97;5.20;;;15.80;99.90;;;;;;5175966;28;20934;-47
2022/06/23 01:30:05;;;;;;;7.90;6.27;;;15.80;99.90;;;;;;5173315;28;20444;-48
2022/06/23 01:32:45;;;;;;;14.77;6.33;;;15.80;99.90;;;;;;5172880;28;20432;-48
2022/06/23 01:35:27;;;;;;;7.20;5.90;;;15.80;99.90;;;;;;5178915;28;20908;-50
2022/06/23 01:38:09;;;;;;;17.67;7.17;;;15.80;99.90;;;;;;5209110;28;20437;-48
2022/06/23 01:40:52;;;;;;;7.60;4.97;;;15.80;99.90;;;;;;5174832;28;21160;-48
2022/06/23 01:43:31;;;;;;;10.47;5.87;;;15.80;99.90;;;;;;5174783;28;20443;-47
2022/06/23 01:46:23;;;;;;;7.07;5.20;;;15.80;99.90;;;;;;5173211;28;20548;-49
2022/06/23 01:48:58;;;;;;;7.93;6.17;;;15.80;99.90;;;;;;5176391;28;20467;-49
2022/06/23 01:51:40;;;;;;;9.00;5.73;;;15.70;99.90;;;;;;5175864;28;20789;-49
2022/06/23 01:54:37;;;;;;;5.80;5.30;;;15.70;99.90;;;;;;5172216;28;20454;-49
2022/06/23 01:57:22;;;;;;;5.67;5.17;;;15.70;99.90;;;;;;5179047;28;20475;-48
2022/06/23 02:00:10;;;;;;;5.27;4.87;;;15.70;99.90;;;;;;5175524;28;20435;-47
2022/06/23 02:03:10;;;;;;;6.93;5.10;;;15.60;99.90;;;;;;5178519;28;21038;-49
2022/06/23 02:05:54;;;;;;;9.83;5.50;;;15.60;99.90;;;;;;5177605;28;21005;-47
2022/06/23 02:08:55;;;;;;;7.67;5.40;;;15.50;99.90;;;;;;5177878;28;20472;-48
2022/06/23 02:11:48;;;;;;;7.13;5.50;;;15.40;99.90;;;;;;5171902;28;20483;-48
2022/06/23 02:14:48;;;;;;;6.80;4.00;;;15.30;99.90;;;;;;5169420;28;20907;-49
2022/06/23 02:17:24;;;;;;;9.03;6.07;;;15.20;99.90;;;;;;5175266;28;20532;-49
2022/06/23 02:20:16;;;;;;;8.00;6.03;;;15.20;99.90;;;;;;5174122;28;20513;-49
2022/06/23 02:22:48;;;;;;;9.13;6.03;;;15.20;99.90;;;;;;5171048;28;20452;-48
2022/06/23 02:25:25;;;;;;;5.83;5.33;;;15.20;99.90;;;;;;5178777;28;20435;-49
2022/06/23 02:28:10;;;;;;;6.47;5.30;;;15.10;99.90;;;;;;5172429;28;21179;-49
2022/06/23 02:31:07;;;;;;;5.23;4.83;;;15.10;99.90;;;;;;5174553;28;20478;-48
2022/06/23 02:33:49;;;;;;;8.07;5.73;;;15.10;99.90;;;;;;5169196;28;20438;-48
2022/06/23 02:36:36;;;;;;;5.87;4.80;;;15.10;99.90;;;;;;5179385;28;20940;-49
2022/06/23 02:39:17;;;;;;;6.33;4.90;;;15.10;99.90;;;;;;5176195;28;20439;-49
2022/06/23 02:41:56;;;;;;;7.27;5.40;;;15.10;99.90;;;;;;5174094;28;20471;-48
2022/06/23 02:45:03;;;;;;;5.63;5.23;;;15.10;99.90;;;;;;5175569;28;20435;-55
2022/06/23 02:48:09;;;;;;;5.80;5.30;;;15.10;99.90;;;;;;5176188;28;20558;-47
2022/06/23 02:50:51;;;;;;;8.00;5.50;;;15.00;99.90;;;;;;5177317;28;20451;-49
2022/06/23 02:53:37;;;;;;;5.87;5.23;;;15.00;99.90;;;;;;5177627;28;20435;-49
2022/06/23 02:56:19;;;;;;;7.03;5.50;;;15.00;99.90;;;;;;5170820;28;21048;-48
2022/06/23 02:59:02;;;;;;;5.53;5.10;;;15.10;99.90;;;;;;5177652;28;20439;-49
2022/06/23 03:01:51;;;;;;;5.27;4.87;;;15.10;99.90;;;;;;5176370;28;20968;-54
2022/06/23 03:04:30;;;;;;;6.67;5.57;;;15.10;99.90;;;;;;5175810;28;20431;-48
2022/06/23 03:07:49;;;;;;;7.53;6.33;;;15.10;99.90;;;;;;5175429;28;20447;-49
2022/06/23 03:10:28;;;;;;;6.40;5.70;;;15.10;99.90;;;;;;5168030;28;20479;-48
2022/06/23 03:13:07;;;;;;;6.43;5.70;;;15.10;99.90;;;;;;5176575;28;20458;-48
2022/06/23 03:15:48;;;;;;;9.73;5.60;;;15.10;99.90;;;;;;5176214;28;20434;-47
2022/06/23 03:18:27;;;;;;;8.77;5.60;;;15.10;99.90;;;;;;5170089;28;20800;-48
2022/06/23 03:21:27;;;;;;;16.03;6.20;;;15.10;99.90;;;;;;5191638;28;20458;-48
2022/06/23 03:24:08;;;;;;;13.93;6.40;;;15.20;99.90;;;;;;5181976;28;20477;-50
2022/06/23 03:26:49;;;;;;;9.70;6.10;;;15.20;99.90;;;;;;5179257;28;20435;-48
2022/06/23 03:29:38;;;;;;;8.20;5.00;;;15.20;99.90;;;;;;5175509;28;20471;-47
2022/06/23 03:32:12;;;;;;;5.67;5.17;;;15.20;99.90;;;;;;5174887;28;20566;-49
2022/06/23 03:34:57;;;;;;;6.47;5.43;;;15.20;99.90;;;;;;5178606;28;20780;-48
2022/06/23 03:37:47;;;;;;;7.17;5.30;;;15.20;99.90;;;;;;5174154;28;20447;-48
2022/06/23 03:43:56;;;;;;;5.80;5.30;;;15.30;99.90;;;;;;5176248;28;21408;-49
2022/06/23 03:46:41;;;;;;;9.23;5.80;;;15.30;99.90;;;;;;5177993;28;20514;-48
2022/06/23 03:49:38;;;;;;;9.60;5.53;;;15.30;99.90;;;;;;5174606;28;21073;-48
2022/06/23 03:52:33;;;;;;;9.57;6.20;;;15.30;99.90;;;;;;5170542;28;20562;-48
2022/06/23 03:55:25;;;;;;;8.63;6.13;;;15.30;99.90;;;;;;5169387;28;20938;-47
2022/06/23 03:58:01;;;;;;;7.13;5.63;;;15.30;99.90;;;;;;5176068;28;20436;-46
2022/06/23 04:00:39;;;;;;;12.50;6.70;;;15.40;99.90;;;;;;5171747;28;20807;-49
2022/06/23 04:03:26;;;;;;;6.40;5.80;;;15.40;99.90;;;;;;5206060;28;20446;-47
2022/06/23 04:05:57;;;;;;;28.17;7.03;;;15.50;99.90;;;;;;5166381;28;20431;-48
2022/06/23 04:08:34;;;;;;;6.53;5.17;;;15.60;99.90;;;;;;5172326;28;20517;-48
2022/06/23 04:14:07;;;;;;;10.03;4.97;;;15.80;99.90;;;;;;5176697;28;20967;-48
2022/06/23 04:16:38;;;;;;;12.20;5.83;;;16.00;99.90;;;;;;5172891;28;20458;-48
2022/06/23 04:19:26;;;;;;;8.67;4.67;;;16.00;99.90;;;;;;5176929;28;20450;-47
2022/06/23 04:22:23;;;;;;;9.63;4.77;;;16.20;99.90;;;;;;5179850;28;20455;-48
2022/06/23 04:24:58;;;;;;;8.13;4.93;;;16.40;99.90;;;;;;5176700;28;20831;-48
2022/06/23 04:27:39;;;;;;;7.00;5.00;;;16.50;99.90;;;;;;5176333;28;20500;-48
2022/06/23 04:30:38;;;;;;;12.50;4.23;;;16.60;99.90;;;;;;5175518;28;20424;-49
2022/06/23 04:33:17;;;;;;;9.50;4.77;;;16.80;99.90;;;;;;5178075;28;20523;-49
2022/06/23 04:35:54;;;;;;;4.30;4.00;;;17.00;99.90;;;;;;5178173;28;20538;-49
2022/06/23 04:38:41;;;;;;;4.10;3.70;;;17.20;99.90;;;;;;5175789;28;20439;-48
2022/06/23 04:41:21;;;;;;;7.83;4.53;;;17.40;99.90;;;;;;5177124;28;20474;-47
2022/06/23 04:44:10;;;;;;;9.20;3.40;;;17.70;99.90;;;;;;5171744;28;20452;-49
2022/06/23 04:46:44;;;;;;;15.97;4.07;;;18.10;99.90;;;;;;5177914;28;20531;-49
2022/06/23 04:49:27;;;;;;;3.87;3.60;;;18.70;99.90;;;;;;5178283;28;20466;-49
2022/06/23 04:52:00;;;;;;;4.90;3.70;;;19.60;99.90;;;;;;5175662;28;20451;-50
2022/06/23 04:54:48;;;;;;;8.13;3.10;;;20.40;97.40;;;;;;5168316;28;20544;-49
2022/06/23 04:57:24;;;;;;;3.63;3.30;;;21.50;92.60;;;;;;5172630;28;24185;-48
2022/06/23 04:59:58;;;;;;;4.63;3.57;;;22.70;76.90;;;;;;5172531;28;20494;-49
2022/06/23 05:02:31;;;;;;;4.90;2.47;;;23.60;70.10;;;;;;5176682;28;20424;-49
2022/06/23 05:05:15;;;;;;;4.90;3.47;;;24.80;59.80;;;;;;5187177;28;20922;-49
2022/06/23 05:08:19;;;;;;;2.87;2.70;;;26.20;55.20;;;;;;5184583;28;20471;-49
2022/06/23 05:11:24;;;;;;;2.63;2.47;;;27.30;49.10;;;;;;5176645;28;20545;-49
2022/06/23 05:14:02;;;;;;;2.63;2.43;;;28.40;45.40;;;;;;5181661;28;20443;-49
2022/06/23 05:16:41;;;;;;;4.60;2.40;;;29.80;42.70;;;;;;5183443;28;20450;-49
2022/06/23 05:19:30;;;;;;;3.90;2.60;;;29.50;39.30;;;;;;5182542;28;20521;-48
2022/06/23 05:22:18;;;;;;;2.63;2.53;;;29.70;40.50;;;;;;5180816;28;20509;-48
2022/06/23 05:24:50;;;;;;;8.90;2.83;;;30.50;40.30;;;;;;5179893;28;20527;-49
2022/06/23 05:27:29;;;;;;;2.67;1.73;;;31.40;36.80;;;;;;5185907;28;20442;-50
2022/06/23 05:30:17;;;;;;;2.10;2.10;;;32.10;35.40;;;;;;5181434;28;20432;-49
2022/06/23 05:32:55;;;;;;;3.33;1.83;;;32.60;34.00;;;;;;5182737;28;20477;-50
2022/06/23 05:35:44;;;;;;;3.63;1.87;;;32.60;33.90;;;;;;5186299;28;20431;-51
2022/06/23 05:38:38;;;;;;;4.70;2.13;;;33.50;32.50;;;;;;5179463;28;20462;-49
2022/06/23 05:41:16;;;;;;;2.47;1.80;;;33.00;31.50;;;;;;5197258;28;20475;-49
2022/06/23 05:43:47;;;;;;;3.53;2.07;;;31.60;32.40;;;;;;5176140;28;20449;-49
2022/06/23 05:46:20;;;;;;;3.17;1.93;;;31.30;33.10;;;;;;5182221;28;20500;-50
2022/06/23 05:49:11;;;;;;;3.90;2.37;;;31.20;33.40;;;;;;5170827;28;20459;-49
2022/06/23 05:51:56;;;;;;;2.50;2.33;;;30.90;33.70;;;;;;5175056;28;20537;-49
2022/06/23 05:54:32;;;;;;;2.27;1.80;;;31.30;34.60;;;;;;5181788;28;20445;-49
2022/06/23 05:57:11;;;;;;;2.10;2.00;;;32.30;32.60;;;;;;5184972;28;20841;-48
2022/06/23 06:00:03;;;;;;;3.63;2.20;;;33.00;32.00;;;;;;5182190;28;21849;-49
2022/06/23 06:02:52;;;;;;;3.50;2.13;;;33.40;31.00;;;;;;5176223;28;20469;-49
2022/06/23 06:05:32;;;;;;;4.30;2.77;;;33.80;30.00;;;;;;5172238;28;20530;-50
2022/06/23 06:08:14;;;;;;;6.70;2.57;;;34.40;30.10;;;;;;5178006;28;20227;-50
2022/06/23 06:10:47;;;;;;;2.27;2.07;;;35.40;29.40;;;;;;5173692;28;20216;-50
2022/06/23 06:13:26;;;;;;;4.40;1.90;;;36.00;28.50;;;;;;5189761;28;20199;-51
2022/06/23 06:15:58;;;;;;;2.63;2.33;;;35.30;28.70;;;;;;5177475;28;20190;-52
2022/06/23 06:18:41;;;;;;;4.10;2.17;;;34.70;28.50;;;;;;5183412;28;20191;-51
2022/06/23 06:21:16;;;;;;;2.53;2.33;;;34.30;29.00;;;;;;5172611;28;20203;-51
2022/06/23 06:24:22;;;;;;;10.83;2.90;;;34.50;29.20;;;;;;5186804;28;20183;-52
2022/06/23 06:26:54;;;;;;;2.50;2.30;;;35.40;28.80;;;;;;5165713;28;20215;-53
2022/06/23 06:29:29;;;;;;;2.58;2.22;;;35.90;27.80;;;;;;5180114;28;20235;-51
2022/06/23 06:32:25;;;;;;;7.68;3.00;;;36.00;27.80;;;;;;5174123;28;20551;-52
2022/06/23 06:35:21;;;;;;;1.60;1.60;;;36.60;27.30;;;;;;5177099;28;20176;-52
2022/06/23 06:38:05;;;;;;;2.35;1.85;;;36.50;27.50;;;;;;5170030;28;20313;-51
2022/06/23 06:40:38;;;;;;;3.33;2.72;;;37.10;26.80;;;;;;5174076;28;20745;-51
2022/06/23 06:43:14;;;;;;;2.10;2.00;;;37.50;26.10;;;;;;5179000;28;20184;-50
2022/06/23 06:45:45;;;;;;;10.90;2.03;;;36.80;26.80;;;;;;5190962;28;20215;-51
2022/06/23 06:48:22;;;;;;;3.50;2.15;;;36.80;27.00;;;;;;5178337;28;20204;-51
2022/06/23 06:50:59;;;;;;;2.03;1.88;;;37.80;26.60;;;;;;5178298;28;20210;-51
2022/06/23 06:53:32;;;;;;;1.90;1.80;;;39.10;25.90;;;;;;5205191;28;20179;-51
2022/06/23 06:56:18;;;;;;;3.33;2.10;;;39.80;24.90;;;;;;5176478;28;20189;-50
2022/06/23 06:59:03;;;;;;;3.25;2.42;;;39.20;24.60;;;;;;5190491;28;20660;-52
2022/06/23 07:01:37;;;;;;;3.97;2.95;;;38.00;25.50;;;;;;5182056;28;20286;-52
2022/06/23 07:04:26;;;;;;;4.63;2.50;;;38.20;25.80;;;;;;5181977;28;20274;-52
2022/06/23 07:07:03;;;;;;;2.47;2.15;;;38.10;25.60;;;;;;5175330;28;20191;-52
2022/06/23 07:09:57;;;;;;;3.72;2.53;;;38.50;25.70;;;;;;5181982;28;20214;-50
2022/06/23 07:12:30;;;;;;;4.90;3.00;;;38.50;25.60;;;;;;5182800;28;20215;-51
2022/06/23 07:15:34;;;;;;;3.00;2.00;;;38.80;25.10;;;;;;5182921;28;20184;-49
2022/06/23 07:18:14;;;;;;;3.40;1.75;;;37.90;25.50;;;;;;5173170;28;20962;-50
2022/06/23 07:21:02;;;;;;;4.90;2.65;;;37.50;26.00;;;;;;5183667;28;20262;-51
2022/06/23 07:23:51;;;;;;;1.83;1.73;;;37.70;26.40;;;;;;5177808;28;20764;-51
2022/06/23 07:26:42;;;;;;;2.53;2.00;;;38.10;25.80;;;;;;5180519;28;20886;-51
2022/06/23 07:29:19;;;;;;;1.83;1.73;;;39.20;25.60;;;;;;5176755;28;20279;-50
2022/06/23 07:32:10;;;;;;;2.30;2.00;;;39.40;24.40;;;;;;5179609;28;20199;-52
2022/06/23 07:34:53;;;;;;;1.40;1.40;;;38.90;25.30;;;;;;5187864;28;20517;-52
2022/06/23 07:37:32;;;;;;;4.93;2.17;;;37.70;25.50;;;;;;5177909;28;20238;-51
2022/06/23 07:40:07;;;;;;;9.07;3.85;;;38.20;25.80;;;;;;5179959;28;20198;-51
2022/06/23 07:43:07;;;;;;;4.38;2.88;;;38.00;25.40;;;;;;5180412;28;20215;-50
2022/06/23 07:45:44;;;;;;;2.17;2.03;;;38.70;25.30;;;;;;5179453;28;20202;-51
2022/06/23 07:48:15;;;;;;;1.92;1.70;;;39.60;24.60;;;;;;5176490;28;20262;-51
2022/06/23 07:50:46;;;;;;;1.90;1.80;;;39.60;24.20;;;;;;5179176;28;20288;-52
2022/06/23 07:53:23;;;;;;;3.90;2.03;;;39.60;23.80;;;;;;5173074;28;20188;-50
2022/06/23 07:55:55;;;;;;;2.50;2.40;;;39.40;23.70;;;;;;5210976;28;20191;-51
2022/06/23 07:58:29;;;;;;;2.20;2.03;;;37.70;24.70;;;;;;5180868;28;20282;-52
2022/06/23 08:01:19;;;;;;;9.98;3.08;;;36.70;25.70;;;;;;5175890;28;20270;-51
2022/06/23 08:03:50;;;;;;;1.60;1.50;;;36.70;26.20;;;;;;5179806;28;20200;-52
2022/06/23 08:06:21;;;;;;;1.70;1.60;;;36.80;26.30;;;;;;5174633;28;20180;-52
2022/06/23 08:08:56;;;;;;;3.17;2.60;;;37.10;25.90;;;;;;5176498;28;20219;-52
2022/06/23 08:14:41;;;;;;;2.10;2.00;;;36.20;26.70;;;;;;5181783;28;20401;-53
2022/06/23 08:17:15;;;;;;;2.90;2.05;;;36.60;27.00;;;;;;5179288;28;20291;-52
2022/06/23 08:20:00;;;;;;;2.08;1.98;;;37.30;25.90;;;;;;5188001;28;20654;-52
2022/06/23 08:22:37;;;;;;;1.65;1.55;;;37.20;26.30;;;;;;5177546;28;20176;-52
2022/06/23 08:25:08;;;;;;;2.00;1.90;;;38.00;25.70;;;;;;5182584;28;20676;-52
2022/06/23 08:27:42;;;;;;;1.48;1.38;;;38.30;25.40;;;;;;5179894;28;20188;-52
2022/06/23 08:30:16;;;;;;;8.82;2.00;;;38.30;25.20;;;;;;5176821;28;20187;-51
2022/06/23 08:32:50;;;;;;;3.03;2.03;;;37.70;24.90;;;;;;5181087;28;20172;-52
2022/06/23 08:35:27;;;;;;;8.20;2.00;;;37.60;25.50;;;;;;5187164;28;20199;-51
2022/06/23 08:38:07;;;;;;;1.85;1.75;;;37.80;25.10;;;;;;5189900;28;20247;-51
2022/06/23 08:41:10;;;;;;;7.00;1.42;;;38.10;24.80;;;;;;5191474;28;20233;-52
2022/06/23 08:43:54;;;;;;;2.70;2.30;;;39.00;24.60;;;;;;5154827;28;20191;-52
2022/06/23 08:46:36;;;;;;;3.22;1.60;;;39.40;24.30;;;;;;5181265;28;20200;-52
2022/06/23 08:49:23;;;;;;;1.98;1.88;;;39.00;23.50;;;;;;5179335;28;20208;-50
2022/06/23 08:52:12;;;;;;;1.95;1.85;;;38.80;24.10;;;;;;5181534;28;20614;-52
2022/06/23 08:54:45;;;;;;;7.03;1.65;;;37.60;24.90;;;;;;5183070;28;20180;-50
2022/06/23 08:57:40;;;;;;;4.10;2.28;;;35.10;27.40;;;;;;5178378;28;20184;-52
2022/06/23 09:00:16;;;;;;;2.23;2.03;;;32.20;29.40;;;;;;5186204;28;20180;-52
2022/06/23 09:03:15;;;;;;;1.73;1.47;;;30.10;31.90;;;;;;5181745;28;20214;-51
2022/06/23 09:05:53;;;;;;;2.93;2.27;;;28.80;33.30;;;;;;5183428;28;20447;-52
2022/06/23 09:08:37;;;;;;;2.23;2.13;;;28.20;35.00;;;;;;5185216;28;20466;-51
2022/06/23 09:11:24;;;;;;;7.43;2.33;;;28.20;35.20;;;;;;5178587;28;20485;-51
2022/06/23 09:14:21;;;;;;;2.40;2.30;;;28.00;36.00;;;;;;5194472;28;20449;-51
2022/06/23 09:16:55;;;;;;;3.07;1.57;;;27.80;36.30;;;;;;5185041;28;20981;-51
2022/06/23 09:20:13;;;;;;;1.77;1.63;;;27.50;36.30;;;;;;5173211;28;21235;-51
2022/06/23 09:23:45;;;;;;;1.57;1.57;;;27.20;35.20;;;;;;5171056;28;20486;-51
2022/06/23 09:26:24;;;;;;;2.83;1.73;;;27.20;36.50;;;;;;5159893;28;20487;-55
2022/06/23 09:29:09;;;;;;;1.57;1.47;;;27.40;36.90;;;;;;5183788;28;20464;-51
2022/06/23 09:31:58;;;;;;;13.43;3.90;;;27.60;36.70;;;;;;5181896;28;20544;-50
2022/06/23 09:34:57;;;;;;;3.50;1.90;;;27.80;37.00;;;;;;5178148;28;20438;-51
2022/06/23 09:37:47;;;;;;;4.20;2.00;;;27.90;35.90;;;;;;5179413;28;20431;-51
2022/06/23 09:40:42;;;;;;;2.00;1.90;;;27.90;36.30;;;;;;5169410;28;20484;-50
2022/06/23 09:43:24;;;;;;;1.50;1.50;;;27.70;35.20;;;;;;5173116;28;20432;-51
2022/06/23 09:46:27;;;;;;;6.53;1.63;;;27.40;35.50;;;;;;5183869;28;20430;-55
2022/06/23 09:49:24;;;;;;;2.03;1.70;;;27.10;36.00;;;;;;5178594;28;20475;-52
2022/06/23 09:52:04;;;;;;;1.50;1.50;;;26.90;35.30;;;;;;5179734;28;20474;-50
2022/06/23 09:54:56;;;;;;;1.77;1.70;;;26.90;35.80;;;;;;5179951;28;20435;-52
2022/06/23 09:57:57;;;;;;;5.60;2.10;;;26.90;35.40;;;;;;5173793;28;20435;-51
2022/06/23 10:00:53;;;;;;;2.13;1.33;;;27.00;35.50;;;;;;5165526;28;20446;-52
2022/06/23 10:04:06;;;;;;;1.93;1.93;;;26.90;35.80;;;;;;5156480;28;20800;-51
2022/06/23 10:06:36;;;;;;;1.47;1.37;;;26.80;36.60;;;;;;5171094;28;21579;-52
2022/06/23 10:09:33;;;;;;;1.67;1.50;;;26.70;36.40;;;;;;5176455;28;20471;-50
2022/06/23 10:12:18;;;;;;;1.93;1.83;;;26.80;35.90;;;;;;5185268;28;20196;-51
2022/06/23 10:14:57;;;;;;;1.53;1.43;;;26.90;34.90;;;;;;5182520;28;20443;-51
2022/06/23 10:17:54;;;;;;;1.40;1.40;;;26.90;35.20;;;;;;5183184;28;20831;-51
2022/06/23 10:20:51;;;;;;;1.27;1.13;;;27.10;34.70;;;;;;5172152;28;20452;-51
2022/06/23 10:23:38;;;;;;;1.67;1.60;;;27.10;35.10;;;;;;5178177;28;20832;-51
2022/06/23 10:26:27;;;;;;;1.53;1.43;;;27.00;34.80;;;;;;5193520;28;20444;-50
2022/06/23 10:29:29;;;;;;;2.43;1.70;;;27.00;35.20;;;;;;5212270;28;20597;-50
2022/06/23 10:32:21;;;;;;;1.73;1.73;;;27.00;35.40;;;;;;5175226;28;20655;-50
2022/06/23 10:35:22;;;;;;;1.90;1.73;;;27.00;34.90;;;;;;5179899;28;20644;-54
2022/06/23 10:38:10;;;;;;;1.70;1.70;;;26.90;34.40;;;;;;5175243;28;20434;-51
2022/06/23 10:41:23;;;;;;;1.43;1.33;;;27.00;34.40;;;;;;5175868;28;20499;-50
2022/06/23 10:44:15;;;;;;;1.87;1.73;;;27.00;33.70;;;;;;5195990;28;20767;-51
2022/06/23 10:47:04;;;;;;;1.73;1.37;;;27.00;34.10;;;;;;5176591;28;20472;-51
2022/06/23 10:49:37;;;;;;;1.63;1.53;;;27.10;33.80;;;;;;5177652;28;20499;-50
2022/06/23 10:52:36;;;;;;;4.70;1.83;;;27.20;34.10;;;;;;5174371;28;20451;-50
2022/06/23 10:55:22;;;;;;;1.87;1.77;;;27.10;34.50;;;;;;5178002;28;20501;-51
2022/06/23 10:58:18;;;;;;;3.17;1.90;;;27.10;35.20;;;;;;5178019;28;20462;-50
2022/06/23 11:01:14;;;;;;;4.73;1.40;;;27.20;35.10;;;;;;5178652;28;20548;-50
2022/06/23 11:04:10;;;;;;;1.90;1.60;;;27.30;35.30;;;;;;5177667;28;20439;-49
2022/06/23 11:06:52;;;;;;;1.37;1.37;;;27.30;34.90;;;;;;5173777;28;20435;-51
2022/06/23 11:09:32;;;;;;;4.20;1.63;;;27.30;34.40;;;;;;5183103;28;20477;-50
2022/06/23 11:12:34;;;;;;;10.70;2.07;;;27.40;34.00;;;;;;5175153;28;20467;-49
2022/06/23 11:15:29;;;;;;;3.73;1.67;;;27.40;34.30;;;;;;5171615;28;21305;-52
2022/06/23 11:18:08;;;;;;;1.80;1.37;;;27.50;33.60;;;;;;5171698;28;20502;-49
2022/06/23 11:21:05;;;;;;;3.20;1.47;;;27.40;32.90;;;;;;5176094;28;20843;-49
2022/06/23 11:24:02;;;;;;;2.30;1.70;;;27.50;33.40;;;;;;5179176;28;20443;-51
2022/06/23 11:26:57;;;;;;;1.77;1.33;;;27.70;33.30;;;;;;5168555;28;20520;-50
2022/06/23 11:29:59;;;;;;;1.40;1.40;;;27.80;32.60;;;;;;5186413;28;20494;-50
2022/06/23 11:32:48;;;;;;;2.00;1.20;;;27.70;31.90;;;;;;5183125;28;20438;-49
2022/06/23 11:35:37;;;;;;;5.20;1.70;;;27.70;32.40;;;;;;5181216;28;20428;-51
2022/06/23 11:38:46;;;;;;;2.40;1.50;;;27.70;32.20;;;;;;5187905;28;20426;-52
2022/06/23 11:41:32;;;;;;;2.10;2.00;;;27.80;32.80;;;;;;5190772;28;20526;-52
2022/06/23 11:44:14;;;;;;;1.73;1.73;;;27.90;32.60;;;;;;5186812;28;20490;-49
2022/06/23 11:47:18;;;;;;;1.90;1.67;;;27.90;32.60;;;;;;5188933;28;20438;-50
2022/06/23 11:49:57;;;;;;;2.73;2.47;;;27.90;32.90;;;;;;5179919;28;20482;-49
2022/06/23 11:53:16;;;;;;;2.33;1.20;;;27.80;32.60;;;;;;5175404;28;20452;-50
2022/06/23 11:55:58;;;;;;;1.57;1.57;;;27.80;33.00;;;;;;5171548;28;20450;-48
2022/06/23 11:58:43;;;;;;;1.73;1.50;;;27.70;32.80;;;;;;5178005;28;20474;-52
2022/06/23 12:01:17;;;;;;;1.20;1.20;;;27.70;33.40;;;;;;5181627;28;20463;-49
2022/06/23 12:04:00;;;;;;;4.50;1.60;;;27.80;33.20;;;;;;5181629;28;20444;-50
2022/06/23 12:07:05;;;;;;;2.37;1.50;;;28.00;32.90;;;;;;5176636;28;20502;-50
2022/06/23 12:10:17;;;;;;;2.60;1.30;;;28.00;32.10;;;;;;5178091;28;20470;-51
2022/06/23 12:12:51;;;;;;;7.60;1.47;;;28.10;31.90;;;;;;5177554;28;20530;-51
2022/06/23 12:15:42;;;;;;;1.10;1.10;;;28.00;32.10;;;;;;5176287;28;20979;-50
2022/06/23 12:18:17;;;;;;;3.90;1.67;;;28.00;32.60;;;;;;5180764;28;20435;-49
2022/06/23 12:21:11;;;;;;;1.70;1.60;;;28.10;33.00;;;;;;5167917;28;20528;-51
2022/06/23 12:23:51;;;;;;;0.93;0.93;;;28.10;32.90;;;;;;5172715;28;20443;-51
2022/06/23 12:26:27;;;;;;;1.77;1.67;;;28.20;33.10;;;;;;5193753;28;21026;-50
2022/06/23 12:29:27;;;;;;;4.50;2.00;;;28.30;33.00;;;;;;5176192;28;20494;-54
2022/06/23 12:32:00;;;;;;;1.33;1.30;;;28.30;33.10;;;;;;5156101;28;20455;-50
2022/06/23 12:34:34;;;;;;;0.90;0.90;;;28.20;32.30;;;;;;5190360;28;20433;-51
2022/06/23 12:37:29;;;;;;;4.40;1.47;;;28.10;32.70;;;;;;5176293;28;20475;-50
2022/06/23 12:40:07;;;;;;;1.33;1.23;;;28.10;32.70;;;;;;5178197;28;20442;-50
2022/06/23 12:42:52;;;;;;;2.30;1.57;;;28.20;33.20;;;;;;5183382;28;20454;-50
2022/06/23 12:45:34;;;;;;;1.43;1.40;;;28.30;33.20;;;;;;5179092;28;20446;-51
2022/06/23 12:48:37;;;;;;;1.80;1.70;;;28.30;33.90;;;;;;5184474;28;20455;-49
2022/06/23 12:51:38;;;;;;;1.67;1.20;;;28.40;32.50;;;;;;5185390;28;20537;-50
2022/06/23 12:54:12;;;;;;;5.60;1.87;;;28.50;33.20;;;;;;5179771;28;20471;-49
2022/06/23 12:56:54;;;;;;;1.23;1.23;;;28.50;33.20;;;;;;5178548;28;20973;-49
2022/06/23 12:59:43;;;;;;;2.97;1.30;;;28.50;33.30;;;;;;5170812;28;20448;-49
2022/06/23 13:02:25;;;;;;;1.73;1.73;;;28.50;33.40;;;;;;5179831;28;20509;-51
2022/06/23 13:05:14;;;;;;;1.97;1.77;;;28.50;33.70;;;;;;5173609;28;20450;-49
2022/06/23 13:08:03;;;;;;;12.47;11.10;;;28.60;33.00;;;;;;5174299;28;20473;-49
2022/06/23 13:10:55;;;;;;;1.80;1.70;;;28.70;32.90;;;;;;5177753;28;20463;-47
2022/06/23 13:13:35;;;;;;;6.63;1.97;;;28.70;33.50;;;;;;5174031;28;20912;-50
2022/06/23 13:16:20;;;;;;;11.20;2.23;;;28.60;33.60;;;;;;5176183;28;20449;-49
2022/06/23 13:19:10;;;;;;;1.83;1.70;;;28.50;32.80;;;;;;5178903;28;20472;-52
2022/06/23 13:21:41;;;;;;;3.70;1.83;;;28.50;32.70;;;;;;5176066;28;20470;-51
2022/06/23 13:24:34;;;;;;;4.00;2.40;;;28.60;33.50;;;;;;5177729;28;20447;-50
2022/06/23 13:27:14;;;;;;;2.17;2.07;;;28.60;33.60;;;;;;5177719;28;20304;-49
2022/06/23 13:30:07;;;;;;;1.83;1.70;;;28.70;33.80;;;;;;5181313;28;20557;-49
2022/06/23 13:33:06;;;;;;;2.00;1.90;;;28.70;33.20;;;;;;5181217;28;20444;-50
2022/06/23 13:35:51;;;;;;;2.23;1.80;;;28.70;33.50;;;;;;5198549;28;20946;-51
2022/06/23 13:38:40;;;;;;;1.70;1.60;;;28.80;33.40;;;;;;5183524;28;20443;-50
2022/06/23 13:41:15;;;;;;;1.33;1.33;;;28.80;32.80;;;;;;5188452;22;20500;-48
2022/06/23 13:44:08;;;;;;;3.40;1.63;;;28.80;32.00;;;;;;5159853;28;20893;-47
2022/06/23 13:46:47;;;;;;;2.83;1.30;;;28.80;32.00;;;;;;5156718;28;20437;-50
2022/06/23 13:49:36;;;;;;;1.20;1.20;;;28.90;32.20;;;;;;5154402;28;20472;-46
2022/06/23 13:52:15;;;;;;;1.67;1.60;;;28.90;32.20;;;;;;5160761;28;20455;-47
2022/06/23 13:55:05;;;;;;;1.23;1.20;;;29.00;31.40;;;;;;5161735;28;20428;-46
2022/06/23 13:58:01;;;;;;;1.40;1.37;;;28.90;30.50;;;;;;5161053;28;20500;-47
2022/06/23 14:00:42;;;;;;;1.10;1.10;;;28.80;30.60;;;;;;5156651;28;20518;-45
2022/06/23 14:03:22;;;;;;;11.20;1.80;;;28.80;30.30;;;;;;5160853;28;20457;-45
2022/06/23 14:05:58;;;;;;;1.27;1.17;;;28.90;30.90;;;;;;5160369;28;20439;-46
2022/06/23 14:08:48;;;;;;;1.00;1.00;;;28.90;29.60;;;;;;5163840;28;20467;-47
2022/06/23 14:11:31;;;;;;;1.90;0.83;;;28.80;29.50;;;;;;5155683;28;20984;-46
2022/06/23 14:14:20;;;;;;;0.83;0.83;;;28.90;29.80;;;;;;5162999;28;20443;-47
2022/06/23 14:16:57;;;;;;;1.50;1.23;;;28.90;30.10;;;;;;5161246;28;20547;-47
2022/06/23 14:19:52;;;;;;;2.47;1.60;;;28.90;29.80;;;;;;5152540;28;20915;-46
2022/06/23 14:22:46;;;;;;;1.70;1.60;;;29.00;29.60;;;;;;5156819;28;20459;-47
2022/06/23 14:25:30;;;;;;;1.10;1.10;;;29.10;29.40;;;;;;5153199;28;20454;-45
2022/06/23 14:28:27;;;;;;;1.23;1.13;;;29.10;28.90;;;;;;5156123;28;20602;-46
2022/06/23 14:31:16;;;;;;;1.17;1.17;;;29.00;29.30;;;;;;5160532;28;20517;-49